createdAt,value
2018-11-12T00:01:01.748Z,4.15
2018-11-12T00:03:29.794Z,6.60
2018-11-12T00:05:57.892Z,3.55
2018-11-12T00:08:25.948Z,2.83
2018-11-12T00:10:53.995Z,4.42
2018-11-12T00:13:22.075Z,2.30
2018-11-12T00:15:50.132Z,3.58
2018-11-12T00:18:18.218Z,3.40
2018-11-12T00:20:46.324Z,2.67
2018-11-12T00:23:14.376Z,4.33
2018-11-12T00:25:42.454Z,2.75
2018-11-12T00:28:10.484Z,3.08
2018-11-12T00:30:38.539Z,3.27
2018-11-12T00:33:06.592Z,3.15
2018-11-12T00:35:34.653Z,2.72
2018-11-12T00:38:02.701Z,3.37
2018-11-12T00:40:30.737Z,2.35
2018-11-12T00:42:58.784Z,3.02
2018-11-12T00:45:26.860Z,2.37
2018-11-12T00:47:54.955Z,3.45
2018-11-12T00:50:23.027Z,3.35
2018-11-12T00:52:51.083Z,3.40
2018-11-12T00:55:19.128Z,4.30
2018-11-12T00:57:47.244Z,2.95
2018-11-12T01:00:16.625Z,3.65
2018-11-12T01:02:45.999Z,2.35
2018-11-12T01:05:14.715Z,1.98
2018-11-12T01:07:42.760Z,2.80
2018-11-12T01:10:12.492Z,3.22
2018-11-12T01:12:40.976Z,2.42
2018-11-12T01:15:11.234Z,2.87
2018-11-12T01:17:39.476Z,1.37
2018-11-12T01:20:08.207Z,3.22
2018-11-12T01:22:36.253Z,2.75
2018-11-12T01:25:04.445Z,2.37
2018-11-12T01:27:32.512Z,4.40
2018-11-12T01:30:00.554Z,2.75
2018-11-12T01:32:28.915Z,3.52
2018-11-12T01:34:56.986Z,2.80
2018-11-12T01:37:25.028Z,2.15
2018-11-12T01:39:53.094Z,3.75
2018-11-12T01:42:21.149Z,2.75
2018-11-12T01:44:49.227Z,2.17
2018-11-12T01:47:17.282Z,3.20
2018-11-12T01:49:45.332Z,2.42
2018-11-12T01:52:13.432Z,2.58
2018-11-12T01:54:41.484Z,1.60
2018-11-12T01:57:09.604Z,2.17
2018-11-12T01:59:37.653Z,1.60
2018-11-12T02:02:06.105Z,2.10
2018-11-12T02:04:34.180Z,2.67
2018-11-12T02:07:02.253Z,3.92
2018-11-12T02:09:30.312Z,2.65
2018-11-12T02:11:58.375Z,3.42
2018-11-12T02:14:26.478Z,4.22
2018-11-12T02:16:54.574Z,2.30
2018-11-12T02:19:22.631Z,2.22
2018-11-12T02:21:50.683Z,1.87
2018-11-12T02:24:18.764Z,1.72
2018-11-12T02:26:46.807Z,2.95
2018-11-12T02:29:14.865Z,2.02
2018-11-12T02:31:42.939Z,1.12
2018-11-12T02:34:10.983Z,1.75
2018-11-12T02:36:39.042Z,2.83
2018-11-12T02:39:08.460Z,2.10
2018-11-12T02:41:36.608Z,1.55
2018-11-12T02:44:06.119Z,1.57
2018-11-12T02:46:34.401Z,1.80
2018-11-12T02:49:02.444Z,1.40
2018-11-12T02:51:30.496Z,2.37
2018-11-12T02:53:58.544Z,3.10
2018-11-12T02:56:26.593Z,3.08
2018-11-12T02:58:54.658Z,1.80
2018-11-12T03:01:23.321Z,2.42
2018-11-12T03:03:52.654Z,1.72
2018-11-12T03:06:20.921Z,2.25
2018-11-12T03:08:48.983Z,2.35
2018-11-12T03:11:17.034Z,1.85
2018-11-12T03:13:45.120Z,2.40
2018-11-12T03:16:13.276Z,1.95
2018-11-12T03:18:41.413Z,2.30
2018-11-12T03:21:09.468Z,1.52
2018-11-12T03:23:37.804Z,3.00
2018-11-12T03:26:05.952Z,1.90
2018-11-12T03:28:34.030Z,2.27
2018-11-12T03:31:02.084Z,1.80
2018-11-12T03:33:30.172Z,2.47
2018-11-12T03:35:58.243Z,1.80
2018-11-12T03:38:26.331Z,1.10
2018-11-12T03:40:54.367Z,2.20
2018-11-12T03:43:22.444Z,1.32
2018-11-12T03:45:50.484Z,1.35
2018-11-12T03:48:18.563Z,1.77
2018-11-12T03:50:46.620Z,1.95
2018-11-12T03:53:14.693Z,2.47
2018-11-12T03:55:42.817Z,3.30
2018-11-12T03:58:10.852Z,2.25
2018-11-12T04:00:38.951Z,1.70
2018-11-12T04:03:07.025Z,2.65
2018-11-12T04:05:35.057Z,1.72
2018-11-12T04:08:03.205Z,1.40
2018-11-12T04:10:31.254Z,1.65
2018-11-12T04:12:59.335Z,4.60
2018-11-12T04:15:27.407Z,1.20
2018-11-12T04:17:55.483Z,3.00
2018-11-12T04:20:24.471Z,3.10
2018-11-12T04:22:56.389Z,2.25
2018-11-12T04:25:24.440Z,3.30
2018-11-12T04:27:52.490Z,2.30
2018-11-12T04:30:20.548Z,2.98
2018-11-12T04:32:48.605Z,2.90
2018-11-12T04:35:16.664Z,2.37
2018-11-12T04:37:44.715Z,2.67
2018-11-12T04:40:15.726Z,2.37
2018-11-12T04:42:44.049Z,2.47
2018-11-12T04:45:13.535Z,2.20
2018-11-12T04:47:42.020Z,2.77
2018-11-12T04:50:11.935Z,3.10
2018-11-12T04:52:40.212Z,2.55
2018-11-12T04:55:09.092Z,3.70
2018-11-12T04:57:37.774Z,5.60
2018-11-12T05:00:08.916Z,3.65
2018-11-12T05:02:36.997Z,2.77
2018-11-12T05:05:05.990Z,3.12
2018-11-12T05:07:34.073Z,3.62
2018-11-12T05:10:02.207Z,4.00
2018-11-12T05:12:30.287Z,2.77
2018-11-12T05:14:58.357Z,2.62
2018-11-12T05:17:26.409Z,3.08
2018-11-12T05:19:54.472Z,2.50
2018-11-12T05:22:22.529Z,2.87
2018-11-12T05:24:50.611Z,3.58
2018-11-12T05:27:18.688Z,3.08
2018-11-12T05:29:46.751Z,7.50
2018-11-12T05:32:14.829Z,2.33
2018-11-12T05:34:42.917Z,2.20
2018-11-12T05:37:11.012Z,3.15
2018-11-12T05:39:39.079Z,1.85
2018-11-12T05:42:07.156Z,4.15
2018-11-12T05:44:35.235Z,3.90
2018-11-12T05:47:03.289Z,3.55
2018-11-12T05:49:31.356Z,2.17
2018-11-12T05:51:59.705Z,3.98
2018-11-12T05:54:27.788Z,4.08
2018-11-12T05:56:55.843Z,3.75
2018-11-12T05:59:23.916Z,3.85
2018-11-12T06:01:52.012Z,3.02
2018-11-12T06:04:20.128Z,3.52
2018-11-12T06:06:48.388Z,3.22
2018-11-12T06:09:16.466Z,3.95
2018-11-12T06:11:44.571Z,3.95
2018-11-12T06:14:12.625Z,3.60
2018-11-12T06:16:40.710Z,2.75
2018-11-12T06:19:08.784Z,3.98
2018-11-12T06:21:36.837Z,3.42
2018-11-12T06:24:05.479Z,5.20
2018-11-12T06:26:33.563Z,3.20
2018-11-12T06:29:01.621Z,3.83
2018-11-12T06:31:29.680Z,3.90
2018-11-12T06:33:57.743Z,3.52
2018-11-12T06:36:25.797Z,3.58
2018-11-12T06:38:54.280Z,4.22
2018-11-12T06:41:22.661Z,2.50
2018-11-12T06:43:50.730Z,4.67
2018-11-12T06:46:18.873Z,3.58
2018-11-12T06:48:46.949Z,2.40
2018-11-12T06:51:15.032Z,3.85
2018-11-12T06:53:43.078Z,4.10
2018-11-12T06:56:11.166Z,2.20
2018-11-12T06:58:39.287Z,2.17
2018-11-12T07:01:07.415Z,2.83
2018-11-12T07:03:35.547Z,5.37
2018-11-12T07:06:03.637Z,2.17
2018-11-12T07:08:31.705Z,2.42
2018-11-12T07:10:59.819Z,4.00
2018-11-12T07:13:27.890Z,4.75
2018-11-12T07:15:55.970Z,4.92
2018-11-12T07:18:24.088Z,5.28
2018-11-12T07:20:52.168Z,3.67
2018-11-12T07:23:20.245Z,2.90
2018-11-12T07:25:48.323Z,4.05
2018-11-12T07:28:16.400Z,3.05
2018-11-12T07:30:44.549Z,5.58
2018-11-12T07:33:12.568Z,5.22
2018-11-12T07:35:40.640Z,5.20
2018-11-12T07:38:08.704Z,4.00
2018-11-12T07:40:36.785Z,5.87
2018-11-12T07:43:04.860Z,3.67
2018-11-12T07:45:32.948Z,4.40
2018-11-12T07:48:01.097Z,4.55
2018-11-12T07:50:30.366Z,5.22
2018-11-12T07:52:58.432Z,3.75
2018-11-12T07:55:27.730Z,3.50
2018-11-12T07:57:56.500Z,4.05
2018-11-12T08:00:25.821Z,4.25
2018-11-12T08:02:59.031Z,5.20
2018-11-12T08:05:27.040Z,3.50
2018-11-12T08:07:55.138Z,3.60
2018-11-12T08:10:23.290Z,4.67
2018-11-12T08:12:51.376Z,4.30
2018-11-12T08:15:20.092Z,4.28
2018-11-12T08:17:48.372Z,1.85
2018-11-12T08:20:17.541Z,2.50
2018-11-12T08:22:46.745Z,3.80
2018-11-12T08:25:14.829Z,3.02
2018-11-12T08:27:43.512Z,2.17
2018-11-12T08:30:13.950Z,4.83
2018-11-12T08:32:42.626Z,2.95
2018-11-12T08:35:10.781Z,3.87
2018-11-12T08:37:38.877Z,6.08
2018-11-12T08:40:09.174Z,2.75
2018-11-12T08:42:37.144Z,3.75
2018-11-12T08:45:06.527Z,4.35
2018-11-12T08:47:35.012Z,4.42
2018-11-12T08:50:03.139Z,2.45
2018-11-12T08:52:31.188Z,5.35
2018-11-12T08:54:59.463Z,3.92
2018-11-12T08:57:27.352Z,3.42
2018-11-12T08:59:55.439Z,3.27
2018-11-12T09:02:23.531Z,2.17
2018-11-12T09:04:51.591Z,2.77
2018-11-12T09:07:19.733Z,3.65
2018-11-12T09:09:47.767Z,4.42
2018-11-12T09:12:15.821Z,3.75
2018-11-12T09:14:43.911Z,2.77
2018-11-12T09:17:11.968Z,2.22
2018-11-12T09:19:40.060Z,2.37
2018-11-12T09:22:08.133Z,2.58
2018-11-12T09:24:36.260Z,2.05
2018-11-12T09:27:04.373Z,2.67
2018-11-12T09:29:32.483Z,5.60
2018-11-12T09:32:00.473Z,3.60
2018-11-12T09:34:28.533Z,3.67
2018-11-12T09:36:56.641Z,2.92
2018-11-12T09:39:24.657Z,2.62
2018-11-12T09:41:52.733Z,3.12
2018-11-12T09:44:20.920Z,2.12
2018-11-12T09:46:48.868Z,2.95
2018-11-12T09:49:16.943Z,2.72
2018-11-12T09:51:45.072Z,3.15
2018-11-12T09:54:13.251Z,2.15
2018-11-12T09:56:41.251Z,2.95
2018-11-12T09:59:09.348Z,2.90
2018-11-12T10:01:37.875Z,3.37
2018-11-12T10:04:06.771Z,2.70
2018-11-12T10:06:34.846Z,3.27
2018-11-12T10:09:04.818Z,2.77
2018-11-12T10:11:33.858Z,2.20
2018-11-12T10:14:01.824Z,3.33
2018-11-12T10:16:29.189Z,2.75
2018-11-12T10:18:54.268Z,2.62
2018-11-12T10:21:22.313Z,2.75
2018-11-12T10:23:50.428Z,1.70
2018-11-12T10:26:18.551Z,3.30
2018-11-12T10:28:46.593Z,1.67
2018-11-12T10:31:14.663Z,2.98
2018-11-12T10:33:42.708Z,2.05
2018-11-12T10:36:11.116Z,2.02
2018-11-12T10:38:39.215Z,2.15
2018-11-12T10:41:07.361Z,2.00
2018-11-12T10:43:35.378Z,3.33
2018-11-12T10:46:03.450Z,2.37
2018-11-12T10:48:31.594Z,3.08
2018-11-12T10:51:05.032Z,3.50
2018-11-12T10:53:27.784Z,3.08
2018-11-12T10:55:55.968Z,2.77
2018-11-12T10:58:23.893Z,1.87
2018-11-12T11:00:57.381Z,8.18
2018-11-12T11:03:30.976Z,4.05
2018-11-12T11:05:59.357Z,3.75
2018-11-12T11:08:27.697Z,4.03
2018-11-12T11:10:55.780Z,3.83
2018-11-12T11:13:23.841Z,2.65
2018-11-12T11:15:51.902Z,3.98
2018-11-12T11:18:19.948Z,3.00
2018-11-12T11:20:48.017Z,4.45
2018-11-12T11:23:16.115Z,4.15
2018-11-12T11:25:44.224Z,2.12
2018-11-12T11:28:12.228Z,3.85
2018-11-12T11:30:40.301Z,5.10
2018-11-12T11:33:08.368Z,5.08
2018-11-12T11:35:36.440Z,3.67
2018-11-12T11:38:04.536Z,4.12
2018-11-12T11:40:32.642Z,2.80
2018-11-12T11:43:00.696Z,3.85
2018-11-12T11:45:28.784Z,6.00
2018-11-12T11:47:56.957Z,4.83
2018-11-12T11:50:26.314Z,3.58
2018-11-12T11:52:54.282Z,4.45
2018-11-12T11:55:23.412Z,4.85
2018-11-12T11:57:51.948Z,5.60
2018-11-12T12:00:22.396Z,3.60
2018-11-12T12:02:51.503Z,4.80
2018-11-12T12:05:20.175Z,4.15
2018-11-12T12:07:48.441Z,2.62
2018-11-12T12:10:17.043Z,3.67
2018-11-12T12:12:45.913Z,3.50
2018-11-12T12:15:15.320Z,3.95
2018-11-12T12:17:43.404Z,5.80
2018-11-12T12:20:15.318Z,6.80
2018-11-12T12:22:43.415Z,4.75
2018-11-12T12:25:12.721Z,4.00
2018-11-12T12:27:40.976Z,7.30
2018-11-12T12:30:11.127Z,5.78
2018-11-12T12:32:39.200Z,3.35
2018-11-12T12:35:08.077Z,3.20
2018-11-12T12:37:36.202Z,4.72
2018-11-12T12:40:04.521Z,3.17
2018-11-12T12:42:32.587Z,3.83
2018-11-12T12:45:00.856Z,3.98
2018-11-12T12:47:28.774Z,4.35
2018-11-12T12:49:56.836Z,4.25
2018-11-12T12:52:24.895Z,4.25
2018-11-12T12:54:52.952Z,3.92
2018-11-12T12:57:21.042Z,3.33
2018-11-12T12:59:49.146Z,3.02
2018-11-12T13:02:17.279Z,3.80
2018-11-12T13:04:45.340Z,3.25
2018-11-12T13:07:13.393Z,3.87
2018-11-12T13:09:41.432Z,4.12
2018-11-12T13:12:09.512Z,3.62
2018-11-12T13:14:37.674Z,5.67
2018-11-12T13:17:05.848Z,4.17
2018-11-12T13:19:33.916Z,6.65
2018-11-12T13:22:02.004Z,5.55
2018-11-12T13:24:30.400Z,6.87
2018-11-12T13:26:58.489Z,9.33
2018-11-12T13:29:26.630Z,8.10
2018-11-12T13:31:54.700Z,11.50
2018-11-12T13:34:22.765Z,8.88
2018-11-12T13:36:50.841Z,10.20
2018-11-12T13:39:18.967Z,11.10
2018-11-12T13:41:47.033Z,7.15
2018-11-12T13:44:15.128Z,10.10
2018-11-12T13:46:48.713Z,9.40
2018-11-12T13:49:16.785Z,7.92
2018-11-12T13:51:44.894Z,8.63
2018-11-12T13:54:12.948Z,8.55
2018-11-12T13:56:41.033Z,8.48
2018-11-12T13:59:09.205Z,6.75
2018-11-12T14:01:37.275Z,8.80
2018-11-12T14:04:05.466Z,7.25
2018-11-12T14:06:33.529Z,8.13
2018-11-12T14:09:01.598Z,6.12
2018-11-12T14:11:29.657Z,7.00
2018-11-12T14:13:58.065Z,6.80
2018-11-12T14:16:26.138Z,6.67
2018-11-12T14:18:54.261Z,7.85
2018-11-12T14:21:22.475Z,9.00
2018-11-12T14:23:50.445Z,8.70
2018-11-12T14:26:18.663Z,8.13
2018-11-12T14:28:46.907Z,5.90
2018-11-12T14:31:14.980Z,6.10
2018-11-12T14:33:43.106Z,5.00
2018-11-12T14:36:11.298Z,5.42
2018-11-12T14:38:39.344Z,5.75
2018-11-12T14:41:07.784Z,5.10
2018-11-12T14:43:35.872Z,5.33
2018-11-12T14:46:03.981Z,7.08
2018-11-12T14:48:32.053Z,6.85
2018-11-12T14:51:00.187Z,5.97
2018-11-12T14:53:28.225Z,7.25
2018-11-12T14:55:56.313Z,6.55
2018-11-12T14:58:24.453Z,5.95
2018-11-12T15:00:52.529Z,7.37
2018-11-12T15:03:20.596Z,9.15
2018-11-12T15:05:48.668Z,4.58
2018-11-12T15:08:16.777Z,5.30
2018-11-12T15:10:44.839Z,6.53
2018-11-12T15:13:12.894Z,8.35
2018-11-12T15:15:40.973Z,6.20
2018-11-12T15:18:09.276Z,5.80
2018-11-12T15:20:37.367Z,6.47
2018-11-12T15:23:05.693Z,4.83
2018-11-12T15:25:33.791Z,7.50
2018-11-12T15:28:01.849Z,5.20
2018-11-12T15:30:29.957Z,6.60
2018-11-12T15:32:58.036Z,6.03
2018-11-12T15:35:26.086Z,5.40
2018-11-12T15:37:54.145Z,8.80
2018-11-12T15:40:22.197Z,5.05
2018-11-12T15:42:50.250Z,5.40
2018-11-12T15:45:20.817Z,6.53
2018-11-12T15:47:49.299Z,5.62
2018-11-12T15:50:35.609Z,5.22
2018-11-12T15:53:03.668Z,5.65
2018-11-12T15:55:31.752Z,6.30
2018-11-12T15:57:59.841Z,5.53
2018-11-12T16:00:27.892Z,7.17
2018-11-12T16:02:56.003Z,6.60
2018-11-12T16:05:24.086Z,6.95
2018-11-12T16:07:52.133Z,4.30
2018-11-12T16:10:21.172Z,6.17
2018-11-12T16:12:49.253Z,8.28
2018-11-12T16:15:18.672Z,8.88
2018-11-12T16:17:46.741Z,5.78
2018-11-12T16:20:19.316Z,4.42
2018-11-12T16:22:48.299Z,5.80
2018-11-12T16:25:16.893Z,5.40
2018-11-12T16:27:45.066Z,4.35
2018-11-12T16:30:13.637Z,4.40
2018-11-12T16:32:42.274Z,3.92
2018-11-12T16:35:13.068Z,5.80
2018-11-12T16:37:41.248Z,6.05
2018-11-12T16:40:09.397Z,8.03
2018-11-12T16:42:38.039Z,9.20
2018-11-12T16:45:06.121Z,8.73
2018-11-12T16:47:34.189Z,9.55
2018-11-12T16:50:02.272Z,5.80
2018-11-12T16:52:30.335Z,8.60
2018-11-12T16:54:58.444Z,9.95
2018-11-12T16:57:26.551Z,13.83
2018-11-12T16:59:54.596Z,9.10
2018-11-12T17:02:22.667Z,8.45
2018-11-12T17:04:50.805Z,13.32
2018-11-12T17:07:18.875Z,10.78
2018-11-12T17:09:47.037Z,10.53
2018-11-12T17:12:15.120Z,11.55
2018-11-12T17:14:43.183Z,10.80
2018-11-12T17:17:11.272Z,7.45
2018-11-12T17:19:39.327Z,9.40
2018-11-12T17:22:07.437Z,13.72
2018-11-12T17:24:35.496Z,12.93
2018-11-12T17:27:03.549Z,9.50
2018-11-12T17:29:31.619Z,12.13
2018-11-12T17:31:59.716Z,12.95
2018-11-12T17:34:27.798Z,9.63
2018-11-12T17:36:55.857Z,9.30
2018-11-12T17:39:23.967Z,8.85
2018-11-12T17:41:52.018Z,7.53
2018-11-12T17:44:20.080Z,10.98
2018-11-12T17:46:48.124Z,9.90
2018-11-12T17:49:16.369Z,9.13
2018-11-12T17:51:44.433Z,10.43
2018-11-12T17:54:12.599Z,9.55
2018-11-12T17:56:40.636Z,9.45
2018-11-12T17:59:08.704Z,14.90
2018-11-12T18:01:37.117Z,11.03
2018-11-12T18:04:05.237Z,10.63
2018-11-12T18:06:33.309Z,9.28
2018-11-12T18:09:01.393Z,12.15
2018-11-12T18:11:29.488Z,11.00
2018-11-12T18:13:57.638Z,10.10
2018-11-12T18:16:25.759Z,10.82
2018-11-12T18:18:53.851Z,12.90
2018-11-12T18:21:21.956Z,8.50
2018-11-12T18:23:50.041Z,11.65
2018-11-12T18:26:18.140Z,13.15
2018-11-12T18:28:46.264Z,10.72
2018-11-12T18:31:14.734Z,9.58
2018-11-12T18:33:42.451Z,10.23
2018-11-12T18:36:10.583Z,14.60
2018-11-12T18:38:38.668Z,14.10
2018-11-12T18:41:06.805Z,11.88
2018-11-12T18:43:34.967Z,9.88
2018-11-12T18:46:03.136Z,9.90
2018-11-12T18:48:31.255Z,8.65
2018-11-12T18:50:59.347Z,10.98
2018-11-12T18:53:27.461Z,8.45
2018-11-12T18:55:55.608Z,10.70
2018-11-12T18:58:23.693Z,12.28
2018-11-12T19:00:51.788Z,12.30
2018-11-12T19:03:20.228Z,12.40
2018-11-12T19:05:48.339Z,7.83
2018-11-12T19:08:16.447Z,10.48
2018-11-12T19:10:44.539Z,9.78
2018-11-12T19:13:12.644Z,10.65
2018-11-12T19:15:40.812Z,10.03
2018-11-12T19:18:10.814Z,11.85
2018-11-12T19:20:38.879Z,14.90
2018-11-12T19:23:07.077Z,9.28
2018-11-12T19:25:35.149Z,14.53
2018-11-12T19:28:03.256Z,13.75
2018-11-12T19:30:31.396Z,12.68
2018-11-12T19:32:59.534Z,12.20
2018-11-12T19:35:29.028Z,12.23
2018-11-12T19:37:57.096Z,13.75
2018-11-12T19:40:26.494Z,13.95
2018-11-12T19:42:55.164Z,14.10
2018-11-12T19:45:23.284Z,12.88
2018-11-12T19:47:52.048Z,10.68
2018-11-12T19:50:21.327Z,13.72
2018-11-12T19:52:50.518Z,16.70
2018-11-12T19:55:18.608Z,16.82
2018-11-12T19:57:47.487Z,13.83
2018-11-12T20:00:17.747Z,15.65
2018-11-12T20:02:47.006Z,11.53
2018-11-12T20:05:15.085Z,13.28
2018-11-12T20:07:43.737Z,10.10
2018-11-12T20:10:13.552Z,13.10
2018-11-12T20:12:41.845Z,12.00
2018-11-12T20:15:10.964Z,18.42
2018-11-12T20:17:39.391Z,14.05
2018-11-12T20:20:11.283Z,15.23
2018-11-12T20:22:39.393Z,12.63
2018-11-12T20:25:08.375Z,15.13
2018-11-12T20:27:36.610Z,12.07
2018-11-12T20:30:05.333Z,12.93
2018-11-12T20:32:33.512Z,14.30
2018-11-12T20:35:01.620Z,14.58
2018-11-12T20:37:29.700Z,17.10
2018-11-12T20:39:57.764Z,14.98
2018-11-12T20:42:25.959Z,11.33
2018-11-12T20:44:54.028Z,16.95
2018-11-12T20:47:22.092Z,14.93
2018-11-12T20:49:50.165Z,13.40
2018-11-12T20:52:18.253Z,18.98
2018-11-12T20:54:46.328Z,14.47
2018-11-12T20:57:14.407Z,17.40
2018-11-12T20:59:42.480Z,14.47
2018-11-12T21:02:10.575Z,17.50
2018-11-12T21:04:38.767Z,18.98
2018-11-12T21:07:06.868Z,17.98
2018-11-12T21:09:34.993Z,15.75
2018-11-12T21:12:03.052Z,11.40
2018-11-12T21:14:31.169Z,13.10
2018-11-12T21:16:59.239Z,13.78
2018-11-12T21:19:27.432Z,17.20
2018-11-12T21:21:55.434Z,17.12
2018-11-12T21:24:23.530Z,10.90
2018-11-12T21:26:51.647Z,11.40
2018-11-12T21:29:19.724Z,15.20
2018-11-12T21:31:47.817Z,12.07
2018-11-12T21:34:15.936Z,9.35
2018-11-12T21:36:44.010Z,17.17
2018-11-12T21:39:13.725Z,11.83
2018-11-12T21:41:41.841Z,9.35
2018-11-12T21:44:09.954Z,9.83
2018-11-12T21:46:38.055Z,12.82
2018-11-12T21:49:06.233Z,13.80
2018-11-12T21:51:34.332Z,17.60
2018-11-12T21:54:02.743Z,11.80
2018-11-12T21:56:30.833Z,11.60
2018-11-12T21:58:58.908Z,11.90
2018-11-12T22:01:27.013Z,11.60
2018-11-12T22:03:55.105Z,11.78
2018-11-12T22:06:23.184Z,12.28
2018-11-12T22:08:51.244Z,16.00
2018-11-12T22:11:19.368Z,16.00
2018-11-12T22:13:47.460Z,13.28
2018-11-12T22:16:15.541Z,15.00
2018-11-12T22:18:43.729Z,10.25
2018-11-12T22:21:11.772Z,13.62
2018-11-12T22:23:39.859Z,10.68
2018-11-12T22:26:08.006Z,13.58
2018-11-12T22:28:36.053Z,11.53
2018-11-12T22:31:04.157Z,9.68
2018-11-12T22:33:32.341Z,8.00
2018-11-12T22:36:00.406Z,9.65
2018-11-12T22:38:28.476Z,11.78
2018-11-12T22:40:56.577Z,11.00
2018-11-12T22:43:24.664Z,7.03
2018-11-12T22:45:52.796Z,9.50
2018-11-12T22:48:20.812Z,11.97
2018-11-12T22:50:48.916Z,13.35
2018-11-12T22:53:17.015Z,9.98
2018-11-12T22:55:45.116Z,10.55
2018-11-12T22:58:13.198Z,12.03
2018-11-12T23:00:43.748Z,12.37
2018-11-12T23:03:11.837Z,10.63
2018-11-12T23:05:39.905Z,10.78
2018-11-12T23:08:07.976Z,9.68
2018-11-12T23:10:36.041Z,7.90
2018-11-12T23:13:04.127Z,9.95
2018-11-12T23:15:32.208Z,14.45
2018-11-12T23:18:01.095Z,8.83
2018-11-12T23:20:29.525Z,10.95
2018-11-12T23:22:57.805Z,7.65
2018-11-12T23:25:25.876Z,12.33
2018-11-12T23:27:54.327Z,10.00
2018-11-12T23:30:23.830Z,11.55
2018-11-12T23:32:51.896Z,12.40
2018-11-12T23:35:22.354Z,11.38
2018-11-12T23:37:50.730Z,11.22
2018-11-12T23:40:18.800Z,13.78
2018-11-12T23:42:47.388Z,13.22
2018-11-12T23:45:15.448Z,7.70
2018-11-12T23:47:43.517Z,10.58
2018-11-12T23:50:15.905Z,13.83
2018-11-12T23:52:44.653Z,11.22
2018-11-12T23:55:13.151Z,9.43
2018-11-12T23:57:41.220Z,12.05
